createdAt,value
2022-12-25T00:01:13.983Z,5.96
2022-12-25T00:03:48.987Z,5.92
2022-12-25T00:06:18.983Z,5.89
2022-12-25T00:08:47.215Z,5.87
2022-12-25T00:11:19.680Z,5.83
2022-12-25T00:13:48.719Z,5.82
2022-12-25T00:16:22.412Z,5.79
2022-12-25T00:18:53.900Z,5.76
2022-12-25T00:21:22.582Z,5.75
2022-12-25T00:23:56.163Z,5.72
2022-12-25T00:26:26.337Z,5.70
2022-12-25T00:28:56.796Z,5.67
2022-12-25T00:31:26.431Z,5.65
2022-12-25T00:33:54.787Z,5.62
2022-12-25T00:36:23.723Z,5.58
2022-12-25T00:38:51.942Z,5.53
2022-12-25T00:41:43.233Z,5.48
2022-12-25T00:44:14.006Z,5.43
2022-12-25T00:46:43.581Z,5.38
2022-12-25T00:49:12.468Z,5.34
2022-12-25T00:51:40.598Z,5.30
2022-12-25T00:54:08.843Z,5.27
2022-12-25T00:56:36.938Z,5.24
2022-12-25T00:59:05.042Z,5.22
2022-12-25T01:01:33.713Z,5.19
2022-12-25T01:04:02.074Z,5.16
2022-12-25T01:06:30.591Z,5.15
2022-12-25T01:09:17.545Z,5.13
2022-12-25T01:11:46.179Z,5.12
2022-12-25T01:14:14.428Z,5.12
2022-12-25T01:16:42.745Z,5.11
2022-12-25T01:19:11.331Z,5.10
2022-12-25T01:21:39.797Z,5.07
2022-12-25T01:24:08.431Z,5.06
2022-12-25T01:26:36.629Z,5.07
2022-12-25T01:29:04.796Z,5.09
2022-12-25T01:31:32.959Z,5.10
2022-12-25T01:34:01.087Z,5.12
2022-12-25T01:36:29.238Z,5.12
2022-12-25T01:38:57.399Z,5.13
2022-12-25T01:41:25.668Z,5.14
2022-12-25T01:44:37.018Z,5.14
2022-12-25T01:47:07.065Z,5.16
2022-12-25T01:49:39.080Z,5.15
2022-12-25T01:52:18.808Z,5.13
2022-12-25T01:55:05.579Z,5.10
2022-12-25T01:57:37.960Z,5.07
2022-12-25T02:00:08.661Z,5.06
2022-12-25T02:02:38.421Z,5.05
2022-12-25T02:05:25.665Z,5.04
2022-12-25T02:07:55.417Z,5.04
2022-12-25T02:10:24.055Z,5.03
2022-12-25T02:12:53.144Z,5.03
2022-12-25T02:15:27.792Z,5.02
2022-12-25T02:18:16.049Z,5.02
2022-12-25T02:21:26.468Z,5.01
2022-12-25T02:24:03.596Z,4.99
2022-12-25T02:26:43.735Z,4.99
2022-12-25T02:29:52.183Z,4.96
2022-12-25T02:33:21.943Z,4.93
2022-12-25T02:35:56.273Z,4.91
2022-12-25T02:39:00.019Z,4.90
2022-12-25T02:41:33.151Z,4.87
2022-12-25T02:44:26.048Z,4.83
2022-12-25T02:47:13.127Z,4.91
2022-12-25T02:50:02.402Z,5.01
2022-12-25T02:52:49.960Z,5.04
2022-12-25T02:55:52.585Z,5.07
2022-12-25T02:58:42.940Z,5.12
2022-12-25T03:01:38.532Z,5.17
2022-12-25T03:04:32.419Z,5.23
2022-12-25T03:07:11.541Z,5.26
2022-12-25T03:10:04.978Z,5.27
2022-12-25T03:12:50.012Z,5.25
2022-12-25T03:15:39.302Z,5.26
2022-12-25T03:18:16.366Z,5.25
2022-12-25T03:21:03.149Z,5.26
2022-12-25T03:23:53.873Z,5.27
2022-12-25T03:26:41.076Z,5.28
2022-12-25T03:29:09.232Z,5.31
2022-12-25T03:31:50.754Z,5.35
2022-12-25T03:35:02.071Z,5.38
2022-12-25T03:38:49.616Z,5.40
2022-12-25T03:42:09.625Z,5.41
2022-12-25T03:45:35.869Z,5.37
2022-12-25T03:48:11.593Z,5.30
2022-12-25T03:51:11.904Z,5.29
2022-12-25T03:54:15.226Z,5.31
2022-12-25T03:57:03.010Z,5.31
2022-12-25T03:59:50.278Z,5.27
2022-12-25T04:02:37.431Z,5.22
2022-12-25T04:05:25.007Z,5.15
2022-12-25T04:08:11.631Z,5.09
2022-12-25T04:10:58.461Z,5.07
2022-12-25T04:13:45.399Z,5.07
2022-12-25T04:16:32.259Z,5.04
2022-12-25T04:19:19.018Z,5.02
2022-12-25T04:22:06.032Z,5.01
2022-12-25T04:24:52.712Z,5.02
2022-12-25T04:27:39.866Z,5.02
2022-12-25T04:30:28.033Z,5.07
2022-12-25T04:33:18.071Z,5.10
2022-12-25T04:36:43.735Z,5.12
2022-12-25T04:39:11.919Z,5.15
2022-12-25T04:41:40.022Z,5.16
2022-12-25T04:44:09.410Z,5.17
2022-12-25T04:46:37.580Z,5.13
2022-12-25T04:49:05.760Z,5.11
2022-12-25T04:51:34.054Z,5.09
2022-12-25T04:54:02.236Z,5.05
2022-12-25T04:56:30.445Z,4.98
2022-12-25T04:58:58.593Z,4.89
2022-12-25T05:01:27.138Z,4.82
2022-12-25T05:03:55.526Z,4.77
2022-12-25T05:06:23.743Z,4.73
2022-12-25T05:08:51.869Z,4.75
2022-12-25T05:11:20.080Z,4.75
2022-12-25T05:13:48.312Z,4.76
2022-12-25T05:16:20.261Z,4.78
2022-12-25T05:18:51.330Z,4.79
2022-12-25T05:21:19.757Z,4.78
2022-12-25T05:23:52.733Z,4.80
2022-12-25T05:26:25.739Z,4.79
2022-12-25T05:28:54.580Z,4.73
2022-12-25T05:31:22.994Z,4.67
2022-12-25T05:33:52.850Z,4.67
2022-12-25T05:36:21.258Z,4.62
2022-12-25T05:38:50.646Z,4.58
2022-12-25T05:41:18.939Z,4.60
2022-12-25T05:43:47.039Z,4.60
2022-12-25T05:46:15.220Z,4.62
2022-12-25T05:48:43.496Z,4.66
2022-12-25T05:51:14.055Z,4.68
2022-12-25T05:53:43.698Z,4.65
2022-12-25T05:56:11.905Z,4.63
2022-12-25T05:58:41.081Z,4.63
2022-12-25T06:01:22.126Z,4.63
2022-12-25T06:03:50.420Z,4.60
2022-12-25T06:06:18.981Z,4.57
2022-12-25T06:08:47.208Z,4.56
2022-12-25T06:11:16.032Z,4.55
2022-12-25T06:13:44.227Z,4.49
2022-12-25T06:16:12.769Z,4.40
2022-12-25T06:18:44.929Z,4.36
2022-12-25T06:21:15.065Z,4.31
2022-12-25T06:23:43.960Z,4.29
2022-12-25T06:26:17.729Z,4.26
2022-12-25T06:28:46.243Z,4.22
2022-12-25T06:31:21.876Z,4.14
2022-12-25T06:33:50.132Z,4.05
2022-12-25T06:36:29.543Z,3.99
2022-12-25T06:39:01.362Z,3.95
2022-12-25T06:41:30.965Z,3.92
2022-12-25T06:44:01.331Z,3.87
2022-12-25T06:46:30.889Z,3.82
2022-12-25T06:49:00.576Z,3.79
2022-12-25T06:51:31.230Z,3.75
2022-12-25T06:54:04.019Z,3.72
2022-12-25T06:56:33.653Z,3.70
2022-12-25T06:59:10.197Z,3.69
2022-12-25T07:01:48.654Z,3.67
2022-12-25T07:04:35.659Z,3.65
2022-12-25T07:07:09.073Z,3.63
2022-12-25T07:09:39.160Z,3.63
2022-12-25T07:12:13.691Z,3.65
2022-12-25T07:14:42.775Z,3.68
2022-12-25T07:17:11.717Z,3.71
2022-12-25T07:19:44.612Z,3.75
2022-12-25T07:22:14.899Z,3.80
2022-12-25T07:24:43.498Z,3.84
2022-12-25T07:27:11.832Z,3.89
2022-12-25T07:29:39.987Z,3.95
2022-12-25T07:32:08.674Z,4.00
2022-12-25T07:34:36.859Z,4.03
2022-12-25T07:37:04.954Z,4.05
2022-12-25T07:39:35.379Z,4.05
2022-12-25T07:42:04.131Z,4.04
2022-12-25T07:44:32.821Z,4.02
2022-12-25T07:47:00.951Z,4.01
2022-12-25T07:49:29.153Z,4.00
2022-12-25T07:51:57.446Z,4.03
2022-12-25T07:54:25.619Z,4.06
2022-12-25T07:56:54.151Z,4.08
2022-12-25T07:59:22.221Z,4.12
2022-12-25T08:01:50.720Z,4.18
2022-12-25T08:04:19.184Z,4.24
2022-12-25T08:06:47.416Z,4.34
2022-12-25T08:09:15.818Z,4.45
2022-12-25T08:11:47.619Z,4.57
2022-12-25T08:14:15.802Z,4.68
2022-12-25T08:16:44.705Z,4.79
2022-12-25T08:19:14.511Z,4.88
2022-12-25T08:21:42.711Z,4.93
2022-12-25T08:24:10.898Z,4.98
2022-12-25T08:26:39.037Z,5.04
2022-12-25T08:29:07.126Z,5.09
2022-12-25T08:31:38.259Z,5.14
2022-12-25T08:34:10.851Z,5.19
2022-12-25T08:36:38.983Z,5.25
2022-12-25T08:39:08.438Z,5.31
2022-12-25T08:41:36.618Z,5.37
2022-12-25T08:44:06.161Z,5.43
2022-12-25T08:46:34.429Z,5.49
2022-12-25T08:49:02.653Z,5.54
2022-12-25T08:51:30.790Z,5.60
2022-12-25T08:54:01.051Z,5.65
2022-12-25T08:56:29.352Z,5.69
2022-12-25T08:58:57.635Z,5.74
2022-12-25T09:01:26.042Z,5.81
2022-12-25T09:03:54.288Z,5.87
2022-12-25T09:06:22.473Z,5.95
2022-12-25T09:08:50.569Z,6.00
2022-12-25T09:11:20.105Z,6.06
2022-12-25T09:13:49.347Z,6.13
2022-12-25T09:16:21.625Z,6.18
2022-12-25T09:18:50.299Z,6.24
2022-12-25T09:21:19.439Z,6.31
2022-12-25T09:23:48.099Z,6.39
2022-12-25T09:26:19.053Z,6.45
2022-12-25T09:28:51.878Z,6.51
2022-12-25T09:31:22.933Z,6.56
2022-12-25T09:33:52.039Z,6.61
2022-12-25T09:36:23.436Z,6.65
2022-12-25T09:38:52.661Z,6.69
2022-12-25T09:41:51.974Z,6.72
2022-12-25T09:44:26.949Z,6.78
2022-12-25T09:47:04.533Z,6.83
2022-12-25T09:50:11.725Z,6.88
2022-12-25T09:52:58.642Z,6.93
2022-12-25T09:55:31.961Z,7.00
2022-12-25T09:58:10.028Z,7.07
2022-12-25T10:00:49.367Z,7.22
2022-12-25T10:03:41.905Z,7.33
2022-12-25T10:06:38.773Z,7.39
2022-12-25T10:09:30.533Z,7.49
2022-12-25T10:12:50.496Z,7.59
2022-12-25T10:15:46.951Z,7.70
2022-12-25T10:18:45.656Z,7.80
2022-12-25T10:21:18.380Z,7.93
2022-12-25T10:23:55.268Z,8.05
2022-12-25T10:26:27.056Z,8.18
2022-12-25T10:29:22.456Z,8.28
2022-12-25T10:31:54.889Z,8.39
2022-12-25T10:34:23.720Z,8.50
2022-12-25T10:36:52.543Z,8.58
2022-12-25T10:39:26.236Z,8.66
2022-12-25T10:42:28.390Z,8.71
2022-12-25T10:45:06.065Z,8.84
2022-12-25T10:47:44.160Z,8.97
2022-12-25T10:50:17.654Z,9.10
2022-12-25T10:52:59.498Z,9.21
2022-12-25T10:55:29.549Z,9.31
2022-12-25T10:57:59.008Z,9.36
2022-12-25T11:00:32.859Z,9.36
2022-12-25T11:03:01.284Z,9.44
2022-12-25T11:05:33.171Z,9.51
2022-12-25T11:08:03.147Z,9.59
2022-12-25T11:10:42.733Z,9.66
2022-12-25T11:13:26.976Z,9.75
2022-12-25T11:16:14.242Z,9.82
2022-12-25T11:18:48.831Z,9.86
2022-12-25T11:21:26.944Z,9.88
2022-12-25T11:24:04.634Z,9.93
2022-12-25T11:26:54.014Z,9.91
2022-12-25T11:29:48.941Z,9.87
2022-12-25T11:32:43.619Z,9.83
2022-12-25T11:35:18.052Z,9.78
2022-12-25T11:37:52.135Z,9.73
2022-12-25T11:40:52.407Z,9.67
2022-12-25T11:43:30.781Z,9.63
2022-12-25T11:46:13.535Z,9.61
2022-12-25T11:49:06.710Z,9.58
2022-12-25T11:51:39.587Z,9.51
2022-12-25T11:54:33.639Z,9.45
2022-12-25T11:57:06.016Z,9.41
2022-12-25T11:59:46.662Z,9.43
2022-12-25T12:02:32.886Z,9.45
2022-12-25T12:05:23.398Z,9.47
2022-12-25T12:08:04.993Z,9.46
2022-12-25T12:11:20.995Z,9.43
2022-12-25T12:14:49.719Z,9.37
2022-12-25T12:17:18.777Z,9.31
2022-12-25T12:19:46.967Z,9.26
2022-12-25T12:32:37.024Z,9.05
2022-12-25T12:35:36.992Z,9.00
2022-12-25T12:38:17.161Z,8.93
2022-12-25T12:41:00.313Z,8.90
2022-12-25T12:43:52.516Z,8.86
2022-12-25T12:46:31.690Z,8.81
2022-12-25T12:49:28.487Z,8.76
2022-12-25T12:52:07.374Z,8.71
2022-12-25T12:54:56.846Z,8.68
2022-12-25T12:57:32.868Z,8.63
2022-12-25T13:00:08.433Z,8.60
2022-12-25T13:03:21.125Z,8.57
2022-12-25T13:06:04.838Z,8.53
2022-12-25T13:08:50.696Z,8.48
2022-12-25T13:11:24.679Z,8.43
2022-12-25T13:13:56.982Z,8.38
2022-12-25T13:16:32.233Z,8.34
2022-12-25T13:19:06.012Z,8.32
2022-12-25T13:21:35.346Z,8.27
2022-12-25T13:24:09.082Z,8.22
2022-12-25T13:26:39.257Z,8.18
2022-12-25T13:29:18.768Z,8.15
2022-12-25T13:31:48.097Z,8.15
2022-12-25T13:34:37.505Z,8.15
2022-12-25T13:37:19.630Z,8.10
2022-12-25T13:39:55.644Z,8.03
2022-12-25T13:42:30.944Z,7.99
2022-12-25T13:45:07.196Z,7.94
2022-12-25T13:47:39.082Z,7.92
2022-12-25T13:50:28.418Z,7.90
2022-12-25T13:53:10.005Z,7.88
2022-12-25T13:55:38.349Z,7.85
2022-12-25T13:58:14.780Z,7.82
2022-12-25T14:00:49.522Z,7.79
2022-12-25T14:03:30.232Z,7.75
2022-12-25T14:06:01.654Z,7.70
2022-12-25T14:08:33.817Z,7.66
2022-12-25T14:11:05.871Z,7.61
2022-12-25T14:13:46.266Z,7.57
2022-12-25T14:16:21.460Z,7.52
2022-12-25T14:19:02.437Z,7.47
2022-12-25T14:21:35.111Z,7.41
2022-12-25T14:24:03.528Z,7.36
2022-12-25T14:26:33.897Z,7.31
2022-12-25T14:29:05.110Z,7.26
2022-12-25T14:31:34.453Z,7.21
2022-12-25T14:34:07.975Z,7.16
2022-12-25T14:36:36.540Z,7.10
2022-12-25T14:39:22.561Z,7.05
2022-12-25T14:41:54.592Z,7.00
2022-12-25T14:44:31.648Z,6.95
2022-12-25T14:47:26.588Z,6.92
2022-12-25T14:49:54.881Z,6.87
2022-12-25T14:52:31.534Z,6.83
2022-12-25T14:55:17.582Z,6.78
2022-12-25T14:57:50.313Z,6.72
2022-12-25T15:00:31.826Z,6.67
2022-12-25T15:03:00.774Z,6.62
2022-12-25T15:05:38.893Z,6.58
2022-12-25T15:08:10.344Z,6.54
2022-12-25T15:13:30.791Z,6.44
2022-12-25T15:16:13.114Z,6.38
2022-12-25T15:18:45.339Z,6.33
2022-12-25T15:21:31.575Z,6.31
2022-12-25T15:24:00.937Z,6.29
2022-12-25T15:26:32.007Z,6.26
2022-12-25T15:29:00.149Z,6.23
2022-12-25T15:31:31.648Z,6.21
2022-12-25T15:34:05.421Z,6.18
2022-12-25T15:36:34.238Z,6.16
2022-12-25T15:39:02.403Z,6.14
2022-12-25T15:41:55.091Z,6.15
2022-12-25T15:44:24.536Z,6.27
2022-12-25T15:46:52.786Z,6.32
2022-12-25T15:49:21.169Z,6.32
2022-12-25T15:51:49.348Z,6.30
2022-12-25T15:54:17.425Z,6.29
2022-12-25T15:56:52.289Z,6.27
2022-12-25T15:59:21.472Z,6.23
2022-12-25T16:01:53.611Z,6.18
2022-12-25T16:04:23.788Z,6.13
2022-12-25T16:06:52.869Z,6.11
2022-12-25T16:09:22.263Z,6.08
2022-12-25T16:11:50.790Z,6.04
2022-12-25T16:14:19.734Z,6.00
2022-12-25T16:16:47.854Z,5.97
2022-12-25T16:19:15.944Z,5.92
2022-12-25T16:21:46.273Z,5.88
2022-12-25T16:24:15.439Z,5.86
2022-12-25T16:26:43.594Z,5.83
2022-12-25T16:29:11.886Z,5.84
2022-12-25T16:31:40.219Z,5.85
2022-12-25T16:34:09.037Z,5.84
2022-12-25T16:36:39.172Z,5.81
2022-12-25T16:39:08.461Z,5.78
2022-12-25T16:41:36.568Z,5.73
2022-12-25T16:44:10.286Z,5.68
2022-12-25T16:46:39.887Z,5.68
2022-12-25T16:49:08.785Z,5.67
2022-12-25T16:51:37.070Z,5.62
2022-12-25T16:54:05.320Z,5.58
2022-12-25T16:56:33.473Z,5.57
2022-12-25T16:59:01.627Z,5.56
2022-12-25T17:01:29.927Z,5.51
2022-12-25T17:04:02.740Z,5.46
2022-12-25T17:06:31.116Z,5.45
2022-12-25T17:09:02.337Z,5.46
2022-12-25T17:11:32.059Z,5.41
2022-12-25T17:14:03.822Z,5.37
2022-12-25T17:16:35.749Z,5.33
2022-12-25T17:19:18.351Z,5.31
2022-12-25T17:21:47.278Z,5.23
2022-12-25T17:24:16.229Z,5.19
2022-12-25T17:26:44.631Z,5.17
2022-12-25T17:29:17.247Z,5.15
2022-12-25T17:31:50.132Z,5.05
2022-12-25T17:34:18.864Z,4.99
2022-12-25T17:36:47.866Z,4.96
2022-12-25T17:39:16.118Z,4.94
2022-12-25T17:41:44.349Z,4.90
2022-12-25T17:44:12.519Z,4.84
2022-12-25T17:46:41.546Z,4.80
2022-12-25T17:49:17.681Z,4.74
2022-12-25T17:51:46.450Z,4.69
2022-12-25T17:54:14.959Z,4.64
2022-12-25T17:56:43.179Z,4.61
2022-12-25T17:59:18.222Z,4.60
2022-12-25T18:01:48.186Z,4.54
2022-12-25T18:04:16.700Z,4.52
2022-12-25T18:06:44.955Z,4.50
2022-12-25T18:09:13.648Z,4.47
2022-12-25T18:11:43.649Z,4.43
2022-12-25T18:14:15.620Z,4.39
2022-12-25T18:16:45.537Z,4.36
2022-12-25T18:19:15.397Z,4.35
2022-12-25T18:21:43.525Z,4.37
2022-12-25T18:24:12.217Z,4.32
2022-12-25T18:26:40.349Z,4.27
2022-12-25T18:29:08.499Z,4.23
2022-12-25T18:31:36.800Z,4.18
2022-12-25T18:34:04.994Z,4.13
2022-12-25T18:36:33.379Z,4.11
2022-12-25T18:39:01.748Z,4.10
2022-12-25T18:41:30.678Z,4.08
2022-12-25T18:43:59.840Z,4.06
2022-12-25T18:46:28.124Z,4.02
2022-12-25T18:48:57.448Z,4.00
2022-12-25T18:51:31.313Z,3.94
2022-12-25T18:54:03.111Z,3.85
2022-12-25T18:56:31.240Z,3.76
2022-12-25T18:59:00.637Z,3.69
2022-12-25T19:01:29.008Z,3.64
2022-12-25T19:04:04.538Z,3.59
2022-12-25T19:06:34.027Z,3.52
2022-12-25T19:09:09.164Z,3.47
2022-12-25T19:11:46.104Z,3.40
2022-12-25T19:14:15.220Z,3.33
2022-12-25T19:16:43.761Z,3.26
2022-12-25T19:19:11.890Z,3.21
2022-12-25T19:21:40.691Z,3.17
2022-12-25T19:24:09.015Z,3.13
2022-12-25T19:26:37.738Z,3.06
2022-12-25T19:29:05.924Z,3.02
2022-12-25T19:31:34.085Z,2.96
2022-12-25T19:34:02.229Z,2.88
2022-12-25T19:36:30.542Z,2.82
2022-12-25T19:38:58.672Z,2.76
2022-12-25T19:41:26.928Z,2.69
2022-12-25T19:43:55.074Z,2.63
2022-12-25T19:46:30.663Z,2.57
2022-12-25T19:49:04.241Z,2.53
2022-12-25T19:51:38.522Z,2.52
2022-12-25T19:54:06.805Z,2.48
2022-12-25T19:56:35.233Z,2.44
2022-12-25T19:59:03.568Z,2.41
2022-12-25T20:01:31.862Z,2.37
2022-12-25T20:04:00.265Z,2.30
2022-12-25T20:06:33.748Z,2.25
2022-12-25T20:09:06.906Z,2.20
2022-12-25T20:11:36.601Z,2.18
2022-12-25T20:14:07.047Z,2.13
2022-12-25T20:16:39.424Z,2.10
2022-12-25T20:19:08.135Z,2.06
2022-12-25T20:21:36.259Z,2.01
2022-12-25T20:24:06.321Z,1.97
2022-12-25T20:26:34.874Z,1.93
2022-12-25T20:29:04.228Z,1.88
2022-12-25T20:31:35.072Z,1.85
2022-12-25T20:34:10.904Z,1.83
2022-12-25T20:36:39.136Z,1.80
2022-12-25T20:39:10.038Z,1.77
2022-12-25T20:41:39.895Z,1.76
2022-12-25T20:44:10.047Z,1.72
2022-12-25T20:46:38.792Z,1.71
2022-12-25T20:49:07.144Z,1.68
2022-12-25T20:51:35.846Z,1.62
2022-12-25T20:54:10.196Z,1.57
2022-12-25T20:56:38.772Z,1.55
2022-12-25T20:59:06.951Z,1.52
2022-12-25T21:01:35.156Z,1.44
2022-12-25T21:04:03.540Z,1.40
2022-12-25T21:06:31.831Z,1.38
2022-12-25T21:09:00.195Z,1.35
2022-12-25T21:11:30.490Z,1.34
2022-12-25T21:13:58.729Z,1.32
2022-12-25T21:16:27.207Z,1.30
2022-12-25T21:18:55.465Z,1.28
2022-12-25T21:21:23.771Z,1.26
2022-12-25T21:23:54.553Z,1.24
2022-12-25T21:26:28.688Z,1.20
2022-12-25T21:29:00.529Z,1.15
2022-12-25T21:31:29.841Z,1.11
2022-12-25T21:33:58.067Z,1.10
2022-12-25T21:36:28.338Z,1.09
2022-12-25T21:38:59.789Z,1.10
2022-12-25T21:41:29.718Z,1.10
2022-12-25T21:43:58.526Z,1.08
2022-12-25T21:46:28.154Z,1.07
2022-12-25T21:48:57.280Z,1.06
2022-12-25T21:51:50.365Z,1.05
2022-12-25T21:54:21.753Z,1.04
2022-12-25T21:56:50.283Z,1.03
2022-12-25T21:59:22.604Z,1.00
2022-12-25T22:01:52.369Z,0.97
2022-12-25T22:04:22.980Z,0.96
2022-12-25T22:07:10.343Z,0.93
2022-12-25T22:09:38.642Z,0.90
2022-12-25T22:12:31.937Z,0.88
2022-12-25T22:15:06.802Z,0.87
2022-12-25T22:17:58.204Z,0.84
2022-12-25T22:20:34.864Z,0.81
2022-12-25T22:23:03.791Z,0.81
2022-12-25T22:25:32.080Z,0.79
2022-12-25T22:28:00.500Z,0.77
2022-12-25T22:30:29.491Z,0.74
2022-12-25T22:32:58.112Z,0.71
2022-12-25T22:35:26.214Z,0.70
2022-12-25T22:37:54.829Z,0.68
2022-12-25T22:40:22.986Z,0.65
2022-12-25T22:42:55.048Z,0.62
2022-12-25T22:45:24.592Z,0.60
2022-12-25T22:47:52.739Z,0.58
2022-12-25T22:50:20.921Z,0.56
2022-12-25T22:52:49.068Z,0.57
2022-12-25T22:55:18.854Z,0.57
2022-12-25T22:57:47.138Z,0.56
2022-12-25T23:00:15.410Z,0.54
2022-12-25T23:02:43.794Z,0.51
2022-12-25T23:05:12.133Z,0.48
2022-12-25T23:07:41.947Z,0.45
2022-12-25T23:10:11.442Z,0.42
2022-12-25T23:12:58.247Z,0.38
2022-12-25T23:15:27.706Z,0.34
2022-12-25T23:18:14.444Z,0.30
2022-12-25T23:21:01.039Z,0.27
2022-12-25T23:23:48.037Z,0.23
2022-12-25T23:26:20.130Z,0.17
2022-12-25T23:29:06.785Z,0.15
2022-12-25T23:31:40.824Z,0.14
2022-12-25T23:34:10.390Z,0.12
2022-12-25T23:36:38.601Z,0.10
2022-12-25T23:39:09.929Z,0.09
2022-12-25T23:41:40.635Z,0.07
2022-12-25T23:44:11.118Z,0.05
2022-12-25T23:46:41.073Z,0.01
2022-12-25T23:49:23.479Z,-0.04
2022-12-25T23:51:52.764Z,-0.06
2022-12-25T23:54:24.942Z,-0.08
2022-12-25T23:56:53.941Z,-0.10
2022-12-25T23:59:22.201Z,-0.08
